Time,TemperatureF,DewpointF,PressureIn,WindDirection,WindDirectionDegrees,WindSpeedMPH,WindSpeedGustMPH,Humidity,HourlyPrecipIn,Conditions,Clouds,dailyrainin,SoftwareType,DateUTC
2013-08-13 00:01:00,72.9,39.6,29.96,West,272,4.6,4.6,30,0.00,CLR,,0.00,WeatherDisplay:10.37,2013-08-13 07:01:00,
2013-08-13 00:06:00,72.8,39.5,29.96,West,263,4.6,4.6,30,0.00,CLR,,0.00,WeatherDisplay:10.37,2013-08-13 07:06:00,
2013-08-13 00:11:00,72.8,38.7,29.96,West,275,5.8,5.8,29,0.00,CLR,,0.00,WeatherDisplay:10.37,2013-08-13 07:11:00,
2013-08-13 00:16:00,73.0,38.9,29.96,West,266,3.5,3.5,29,0.00,CLR,,0.00,WeatherDisplay:10.37,2013-08-13 07:16:00,
2013-08-13 00:21:00,72.7,38.6,29.96,WSW,258,3.5,3.5,29,0.00,CLR,,0.00,WeatherDisplay:10.37,2013-08-13 07:21:00,
2013-08-13 00:26:00,72.4,38.3,29.96,WSW,257,1.2,1.2,29,0.00,CLR,,0.00,WeatherDisplay:10.37,2013-08-13 07:26:00,
2013-08-13 00:31:00,72.1,38.1,29.96,WSW,257,0.0,0.0,29,0.00,CLR,,0.00,WeatherDisplay:10.37,2013-08-13 07:31:00,
2013-08-13 00:36:00,71.9,37.9,29.96,WSW,258,0.0,0.0,29,0.00,CLR,,0.00,WeatherDisplay:10.37,2013-08-13 07:36:00,
2013-08-13 00:41:00,71.7,38.6,29.96,WSW,258,0.0,0.0,30,0.00,CLR,,0.00,WeatherDisplay:10.37,2013-08-13 07:41:00,
2013-08-13 00:46:00,71.5,39.3,29.96,North,355,0.0,0.0,31,0.00,CLR,,0.00,WeatherDisplay:10.37,2013-08-13 07:46:00,
2013-08-13 00:51:00,71.8,39.5,29.97,SW,230,2.3,2.3,31,0.00,CLR,,0.00,WeatherDisplay:10.37,2013-08-13 07:51:00,
2013-08-13 00:56:00,71.8,39.5,29.97,South,173,0.0,0.0,31,0.00,CLR,,0.00,WeatherDisplay:10.37,2013-08-13 07:56:00,
2013-08-13 01:01:00,71.8,40.3,29.96,South,172,2.0,2.0,32,0.00,CLR,,0.00,WeatherDisplay:10.37,2013-08-13 08:01:00,
2013-08-13 01:06:00,72.3,40.0,29.96,South,173,0.0,0.0,31,0.00,CLR,,0.00,WeatherDisplay:10.37,2013-08-13 08:06:00,
2013-08-13 01:11:00,72.2,39.0,29.96,NNE,15,10.4,10.4,30,0.00,CLR,,0.00,WeatherDisplay:10.37,2013-08-13 08:11:00,
2013-08-13 01:16:00,72.7,39.5,29.96,SW,226,3.5,3.5,30,0.00,CLR,,0.00,WeatherDisplay:10.37,2013-08-13 08:16:00,
2013-08-13 01:21:00,73.0,39.7,29.96,SW,225,0.0,0.0,30,0.00,CLR,,0.00,WeatherDisplay:10.37,2013-08-13 08:21:00,
2013-08-13 01:26:00,73.0,39.7,29.96,SW,225,0.0,0.0,30,0.00,CLR,,0.00,WeatherDisplay:10.37,2013-08-13 08:26:00,
2013-08-13 01:31:00,72.9,40.5,29.96,SW,225,0.0,0.0,31,0.00,CLR,,0.00,WeatherDisplay:10.37,2013-08-13 08:31:00,
2013-08-13 01:36:00,72.7,40.3,29.95,WSW,246,5.0,5.0,31,0.00,CLR,,0.00,WeatherDisplay:10.37,2013-08-13 08:36:00,
2013-08-13 01:41:00,72.5,40.1,29.95,WSW,239,2.3,2.3,31,0.00,CLR,,0.00,WeatherDisplay:10.37,2013-08-13 08:41:00,
2013-08-13 01:46:00,72.0,39.7,29.96,SSW,206,3.0,3.0,31,0.00,CLR,,0.00,WeatherDisplay:10.37,2013-08-13 08:46:00,
2013-08-13 01:51:00,72.1,39.8,29.95,SSW,206,3.5,3.5,31,0.00,CLR,,0.00,WeatherDisplay:10.37,2013-08-13 08:51:00,
2013-08-13 01:56:00,71.9,40.4,29.95,SSW,206,2.3,2.3,32,0.00,CLR,,0.00,WeatherDisplay:10.37,2013-08-13 08:56:00,
2013-08-13 02:01:00,71.2,39.8,29.96,North,355,3.5,3.5,32,0.00,CLR,,0.00,WeatherDisplay:10.37,2013-08-13 09:01:00,
2013-08-13 02:06:00,70.6,40.1,29.96,North,355,0.0,0.0,33,0.00,CLR,,0.00,WeatherDisplay:10.37,2013-08-13 09:06:00,
2013-08-13 02:11:00,70.4,39.9,29.95,North,355,0.0,0.0,33,0.00,CLR,,0.00,WeatherDisplay:10.37,2013-08-13 09:11:00,
2013-08-13 02:16:00,70.1,39.6,29.96,North,355,3.5,3.5,33,0.00,CLR,,0.00,WeatherDisplay:10.37,2013-08-13 09:16:00,
2013-08-13 02:21:00,70.1,39.6,29.96,North,355,2.3,2.3,33,0.00,CLR,,0.00,WeatherDisplay:10.37,2013-08-13 09:21:00,
2013-08-13 02:26:00,70.0,40.3,29.96,North,355,0.0,0.0,34,0.00,CLR,,0.00,WeatherDisplay:10.37,2013-08-13 09:26:00,
2013-08-13 02:31:00,70.2,40.5,29.96,ESE,107,3.5,3.5,34,0.00,CLR,,0.00,WeatherDisplay:10.37,2013-08-13 09:31:00,
2013-08-13 02:36:00,70.4,40.7,29.95,ESE,115,2.3,2.3,34,0.00,CLR,,0.00,WeatherDisplay:10.37,2013-08-13 09:36:00,
2013-08-13 02:41:00,70.4,39.9,29.96,NNW,337,3.5,3.5,33,0.00,CLR,,0.00,WeatherDisplay:10.37,2013-08-13 09:41:00,
2013-08-13 02:46:00,70.0,40.3,29.96,NNW,336,1.2,0.0,34,0.00,CLR,,0.00,WeatherDisplay:10.37,2013-08-13 09:46:00,
2013-08-13 02:51:00,70.1,40.4,29.96,NNW,336,0.0,0.0,34,0.00,CLR,,0.00,WeatherDisplay:10.37,2013-08-13 09:51:00,
2013-08-13 02:56:00,70.1,40.4,29.96,NNW,336,0.0,0.0,34,0.00,CLR,,0.00,WeatherDisplay:10.37,2013-08-13 09:56:00,
2013-08-13 03:01:00,70.3,41.3,29.96,NNW,346,6.0,6.0,35,0.00,CLR,,0.00,WeatherDisplay:10.37,2013-08-13 10:01:00,
2013-08-13 03:06:00,69.9,41.0,29.96,North,350,0.0,0.0,35,0.00,CLR,,0.00,WeatherDisplay:10.37,2013-08-13 10:06:00,
2013-08-13 03:11:00,70.0,41.1,29.96,North,350,1.0,0.0,35,0.00,CLR,,0.00,WeatherDisplay:10.37,2013-08-13 10:11:00,
2013-08-13 03:16:00,70.1,41.2,29.96,North,351,0.0,0.0,35,0.00,CLR,,0.00,WeatherDisplay:10.37,2013-08-13 10:16:00,
2013-08-13 03:21:00,69.7,41.5,29.96,North,351,0.0,0.0,36,0.00,CLR,,0.00,WeatherDisplay:10.37,2013-08-13 10:21:00,
2013-08-13 03:26:00,69.3,41.2,29.96,North,350,3.5,3.5,36,0.00,CLR,,0.00,WeatherDisplay:10.37,2013-08-13 10:26:00,
2013-08-13 03:31:00,69.6,42.2,29.96,North,351,0.0,0.0,37,0.00,CLR,,0.00,WeatherDisplay:10.37,2013-08-13 10:31:00,
2013-08-13 03:36:00,69.9,41.7,29.96,North,350,0.0,0.0,36,0.00,CLR,,0.00,WeatherDisplay:10.37,2013-08-13 10:36:00,
2013-08-13 03:41:00,69.4,40.5,29.96,North,351,2.3,2.3,35,0.00,CLR,,0.00,WeatherDisplay:10.37,2013-08-13 10:41:00,
2013-08-13 03:46:00,69.0,42.3,29.96,North,350,1.2,1.2,38,0.00,CLR,,0.00,WeatherDisplay:10.37,2013-08-13 10:46:00,
2013-08-13 03:51:00,69.4,44.0,29.96,WSW,244,3.5,3.5,40,0.00,CLR,,0.00,WeatherDisplay:10.37,2013-08-13 10:51:00,
2013-08-13 03:56:00,69.4,42.7,29.96,WSW,244,0.0,0.0,38,0.00,CLR,,0.00,WeatherDisplay:10.37,2013-08-13 10:56:00,
2013-08-13 04:01:00,69.3,43.3,29.96,WSW,244,0.0,0.0,39,0.00,CLR,,0.00,WeatherDisplay:10.37,2013-08-13 11:01:00,
2013-08-13 04:06:00,69.7,44.3,29.96,WSW,244,0.0,0.0,40,0.00,CLR,,0.00,WeatherDisplay:10.37,2013-08-13 11:06:00,
2013-08-13 04:11:00,69.5,43.4,29.95,SW,223,0.0,0.0,39,0.00,CLR,,0.00,WeatherDisplay:10.37,2013-08-13 11:11:00,
2013-08-13 04:16:00,69.3,43.9,29.96,SW,222,3.5,3.5,40,0.00,CLR,,0.00,WeatherDisplay:10.37,2013-08-13 11:16:00,
2013-08-13 04:21:00,69.6,44.2,29.96,SSW,198,3.0,3.0,40,0.00,CLR,,0.00,WeatherDisplay:10.37,2013-08-13 11:21:00,
2013-08-13 04:26:00,69.2,43.8,29.96,SSW,198,0.0,0.0,40,0.00,CLR,,0.00,WeatherDisplay:10.37,2013-08-13 11:26:00,
2013-08-13 04:31:00,68.9,44.2,29.96,SSW,198,0.0,0.0,41,0.00,CLR,,0.00,WeatherDisplay:10.37,2013-08-13 11:31:00,
2013-08-13 04:36:00,68.6,43.9,29.96,SSW,198,3.0,3.0,41,0.00,CLR,,0.00,WeatherDisplay:10.37,2013-08-13 11:36:00,
2013-08-13 04:41:00,68.3,43.7,29.96,SSW,198,2.3,2.3,41,0.00,CLR,,0.00,WeatherDisplay:10.37,2013-08-13 11:41:00,
2013-08-13 04:46:00,67.8,43.9,29.96,SSW,198,2.3,2.3,42,0.00,CLR,,0.00,WeatherDisplay:10.37,2013-08-13 11:46:00,
2013-08-13 04:51:00,67.4,44.1,29.96,SSW,195,2.0,2.0,43,0.00,CLR,,0.00,WeatherDisplay:10.37,2013-08-13 11:51:00,
2013-08-13 04:56:00,67.1,43.8,29.96,South,173,0.0,0.0,43,0.00,CLR,,0.00,WeatherDisplay:10.37,2013-08-13 11:56:00,
2013-08-13 05:01:00,66.6,43.4,29.96,South,173,3.5,3.5,43,0.00,CLR,,0.00,WeatherDisplay:10.37,2013-08-13 12:01:00,
2013-08-13 05:06:00,66.0,42.9,29.96,South,173,3.5,3.5,43,0.00,CLR,,0.00,WeatherDisplay:10.37,2013-08-13 12:06:00,
2013-08-13 05:11:00,65.1,42.6,29.96,South,172,2.3,2.3,44,0.00,CLR,,0.00,WeatherDisplay:10.37,2013-08-13 12:11:00,
2013-08-13 05:16:00,64.0,41.6,29.96,South,173,3.5,3.5,44,0.00,CLR,,0.00,WeatherDisplay:10.37,2013-08-13 12:16:00,
2013-08-13 05:21:00,63.1,40.8,29.96,South,173,0.0,0.0,44,0.00,CLR,,0.00,WeatherDisplay:10.37,2013-08-13 12:21:00,
2013-08-13 05:26:00,61.8,39.6,29.96,South,186,4.0,4.0,44,0.00,CLR,,0.00,WeatherDisplay:10.37,2013-08-13 12:26:00,
2013-08-13 05:31:00,60.7,39.2,29.96,South,188,3.5,3.5,45,0.00,CLR,,0.00,WeatherDisplay:10.37,2013-08-13 12:31:00,
2013-08-13 05:36:00,60.2,39.9,29.97,WNW,286,3.0,3.0,47,0.00,CLR,,0.00,WeatherDisplay:10.37,2013-08-13 12:36:00,
2013-08-13 05:41:00,61.6,41.2,29.97,NNW,342,4.6,4.6,47,0.00,CLR,,0.00,WeatherDisplay:10.37,2013-08-13 12:41:00,
2013-08-13 05:46:00,62.1,41.1,29.97,NW,323,0.0,0.0,46,0.00,CLR,,0.00,WeatherDisplay:10.37,2013-08-13 12:46:00,
2013-08-13 05:51:00,61.6,41.2,29.97,West,265,3.5,3.5,47,0.00,CLR,,0.00,WeatherDisplay:10.37,2013-08-13 12:51:00,
2013-08-13 05:56:00,61.1,40.1,29.97,WSW,254,3.5,3.5,46,0.00,CLR,,0.00,WeatherDisplay:10.37,2013-08-13 12:56:00,
2013-08-13 06:01:00,60.8,41.0,29.97,WSW,253,3.5,3.5,48,0.00,CLR,,0.00,WeatherDisplay:10.37,2013-08-13 13:01:00,
2013-08-13 06:06:00,61.1,41.8,29.97,West,279,2.0,2.0,49,0.00,CLR,,0.00,WeatherDisplay:10.37,2013-08-13 13:06:00,
2013-08-13 06:11:00,61.9,41.4,29.97,West,279,3.5,3.5,47,0.00,CLR,,0.00,WeatherDisplay:10.37,2013-08-13 13:11:00,
2013-08-13 06:16:00,62.8,41.7,29.97,West,273,3.5,3.5,46,0.00,CLR,,0.00,WeatherDisplay:10.37,2013-08-13 13:16:00,
2013-08-13 06:21:00,62.6,40.9,29.97,WSW,254,3.5,3.5,45,0.00,CLR,,0.00,WeatherDisplay:10.37,2013-08-13 13:21:00,
2013-08-13 06:26:00,62.0,40.4,29.97,WSW,247,3.5,3.5,45,0.00,CLR,,0.00,WeatherDisplay:10.37,2013-08-13 13:26:00,
2013-08-13 06:31:00,61.6,40.0,29.97,WSW,246,4.0,4.0,45,0.00,CLR,,0.00,WeatherDisplay:10.37,2013-08-13 13:31:00,
2013-08-13 06:36:00,61.6,40.0,29.97,WSW,246,3.5,3.5,45,0.00,CLR,,0.00,WeatherDisplay:10.37,2013-08-13 13:36:00,
2013-08-13 06:41:00,61.9,39.7,29.97,WSW,258,4.6,4.6,44,0.00,CLR,,0.00,WeatherDisplay:10.37,2013-08-13 13:41:00,
2013-08-13 06:46:00,61.9,39.7,29.98,WSW,253,4.6,4.6,44,0.00,CLR,,0.00,WeatherDisplay:10.37,2013-08-13 13:46:00,
2013-08-13 06:51:00,62.1,39.9,29.98,WSW,243,4.6,4.6,44,0.00,CLR,,0.00,WeatherDisplay:10.37,2013-08-13 13:51:00,
2013-08-13 06:56:00,62.3,39.5,29.98,SW,229,0.0,0.1,43,0.00,CLR,,0.00,WeatherDisplay:10.37,2013-08-13 13:56:00,
2013-08-13 07:01:00,62.6,39.2,29.98,SW,221,3.5,3.5,42,0.00,CLR,,0.00,WeatherDisplay:10.37,2013-08-13 14:01:00,
2013-08-13 07:06:00,63.2,39.1,29.98,SW,226,2.3,2.3,41,0.00,CLR,,0.00,WeatherDisplay:10.37,2013-08-13 14:06:00,
2013-08-13 07:11:00,64.1,39.9,29.98,SW,226,0.0,0.0,41,0.00,CLR,,0.00,WeatherDisplay:10.37,2013-08-13 14:11:00,
2013-08-13 07:32:00,67.7,40.5,29.99,SW,226,10.4,10.4,37,0.00,CLR,,0.00,WeatherDisplay:10.37,2013-08-13 14:32:00,
2013-08-13 07:37:00,68.6,40.6,29.99,SW,227,2.3,2.3,36,0.00,CLR,,0.00,WeatherDisplay:10.37,2013-08-13 14:37:00,
2013-08-13 07:42:00,69.4,41.3,29.99,WSW,246,2.3,2.3,36,0.00,CLR,,0.00,WeatherDisplay:10.37,2013-08-13 14:42:00,
2013-08-13 07:47:00,70.2,41.3,29.99,WSW,244,3.5,3.5,35,0.00,CLR,,0.00,WeatherDisplay:10.37,2013-08-13 14:47:00,
2013-08-13 07:52:00,71.0,42.0,29.99,SW,232,3.5,3.5,35,0.00,CLR,,0.00,WeatherDisplay:10.37,2013-08-13 14:52:00,
2013-08-13 07:57:00,71.6,41.7,29.99,SW,217,4.0,4.0,34,0.00,CLR,,0.00,WeatherDisplay:10.37,2013-08-13 14:57:00,
2013-08-13 08:02:00,72.4,42.4,29.99,NW,306,4.6,4.6,34,0.00,CLR,,0.00,WeatherDisplay:10.37,2013-08-13 15:02:00,
2013-08-13 08:07:00,73.3,42.4,29.99,West,259,4.0,4.0,33,0.00,CLR,,0.00,WeatherDisplay:10.37,2013-08-13 15:07:00,
2013-08-13 08:12:00,74.0,43.1,29.99,WNW,286,3.0,3.0,33,0.00,CLR,,0.00,WeatherDisplay:10.37,2013-08-13 15:12:00,
2013-08-13 08:17:00,74.7,42.9,29.99,SW,236,3.5,3.5,32,0.00,CLR,,0.00,WeatherDisplay:10.37,2013-08-13 15:17:00,
2013-08-13 08:22:00,75.6,43.7,29.99,WNW,286,4.6,4.6,32,0.00,CLR,,0.00,WeatherDisplay:10.37,2013-08-13 15:22:00,
2013-08-13 08:27:00,76.4,43.5,29.99,NW,305,5.8,5.8,31,0.00,CLR,,0.00,WeatherDisplay:10.37,2013-08-13 15:27:00,
2013-08-13 08:33:00,77.2,44.2,29.99,WSW,254,4.6,4.6,31,0.00,CLR,,0.00,WeatherDisplay:10.37,2013-08-13 15:33:00,
2013-08-13 08:38:00,78.0,44.9,30.00,WSW,248,3.5,3.5,31,0.00,CLR,,0.00,WeatherDisplay:10.37,2013-08-13 15:38:00,
2013-08-13 08:43:00,79.0,45.8,30.00,WSW,254,5.8,5.8,31,0.00,CLR,,0.00,WeatherDisplay:10.37,2013-08-13 15:43:00,
2013-08-13 08:48:00,79.9,45.7,30.00,WSW,257,4.6,4.6,30,0.00,CLR,,0.00,WeatherDisplay:10.37,2013-08-13 15:48:00,
2013-08-13 08:53:00,80.7,45.5,30.00,SW,225,3.5,3.5,29,0.00,CLR,,0.00,WeatherDisplay:10.37,2013-08-13 15:53:00,
2013-08-13 08:58:00,81.2,45.9,30.00,SW,220,5.8,5.8,29,0.00,CLR,,0.00,WeatherDisplay:10.37,2013-08-13 15:58:00,
2013-08-13 09:03:00,81.6,45.3,30.00,SSW,213,6.9,6.9,28,0.00,CLR,,0.00,WeatherDisplay:10.37,2013-08-13 16:03:00,
2013-08-13 09:08:00,81.7,45.4,30.00,SSW,201,5.8,5.8,28,0.00,CLR,,0.00,WeatherDisplay:10.37,2013-08-13 16:08:00,
2013-08-13 09:13:00,82.1,45.8,30.00,SW,216,6.9,6.9,28,0.00,CLR,,0.00,WeatherDisplay:10.37,2013-08-13 16:13:00,
2013-08-13 09:18:00,82.6,46.2,30.00,SSE,162,5.0,5.0,28,0.00,CLR,,0.00,WeatherDisplay:10.37,2013-08-13 16:18:00,
2013-08-13 09:23:00,83.4,45.9,30.00,West,271,4.6,4.6,27,0.00,CLR,,0.00,WeatherDisplay:10.37,2013-08-13 16:23:00,
2013-08-13 09:28:00,84.0,46.4,30.00,West,260,5.8,5.8,27,0.00,CLR,,0.00,WeatherDisplay:10.37,2013-08-13 16:28:00,
2013-08-13 09:33:00,84.3,46.7,30.00,South,183,5.8,5.8,27,0.00,CLR,,0.00,WeatherDisplay:10.37,2013-08-13 16:33:00,
2013-08-13 09:38:00,84.7,46.0,30.00,WNW,287,4.6,4.6,26,0.00,CLR,,0.00,WeatherDisplay:10.37,2013-08-13 16:38:00,
2013-08-13 09:43:00,84.6,45.9,30.00,NNW,331,4.6,4.6,26,0.00,CLR,,0.00,WeatherDisplay:10.37,2013-08-13 16:43:00,
2013-08-13 09:48:00,84.6,45.9,30.00,NW,305,2.3,2.3,26,0.00,CLR,,0.00,WeatherDisplay:10.37,2013-08-13 16:48:00,
2013-08-13 09:53:00,85.5,46.7,30.00,SSW,206,5.8,5.8,26,0.00,CLR,,0.00,WeatherDisplay:10.37,2013-08-13 16:53:00,
2013-08-13 09:58:00,86.2,47.3,30.00,South,191,3.5,3.5,26,0.00,CLR,,0.00,WeatherDisplay:10.37,2013-08-13 16:58:00,
2013-08-13 10:03:00,87.0,46.9,30.00,SE,126,4.0,4.0,25,0.00,CLR,,0.00,WeatherDisplay:10.37,2013-08-13 17:03:00,
2013-08-13 10:08:00,87.1,47.0,30.00,SSE,165,4.6,4.6,25,0.00,CLR,,0.00,WeatherDisplay:10.37,2013-08-13 17:08:00,
2013-08-13 10:13:00,87.4,46.2,30.00,SSE,150,4.6,4.6,24,0.00,CLR,,0.00,WeatherDisplay:10.37,2013-08-13 17:13:00,
2013-08-13 10:18:00,87.7,46.4,30.00,East,90,4.6,4.6,24,0.00,CLR,,0.00,WeatherDisplay:10.37,2013-08-13 17:18:00,
2013-08-13 10:23:00,87.5,46.3,30.00,ESE,123,6.9,6.9,24,0.00,CLR,,0.00,WeatherDisplay:10.37,2013-08-13 17:23:00,
2013-08-13 10:28:00,87.8,46.5,30.00,SSE,159,4.6,4.6,24,0.00,CLR,,0.00,WeatherDisplay:10.37,2013-08-13 17:28:00,
2013-08-13 10:33:00,88.7,47.3,30.00,SSE,161,3.5,3.5,24,0.00,CLR,,0.00,WeatherDisplay:10.37,2013-08-13 17:33:00,
2013-08-13 10:38:00,89.3,46.6,30.00,SE,140,3.5,3.5,23,0.00,CLR,,0.00,WeatherDisplay:10.37,2013-08-13 17:38:00,
2013-08-13 10:43:00,89.5,47.9,29.99,SW,226,3.5,3.5,24,0.00,CLR,,0.00,WeatherDisplay:10.37,2013-08-13 17:43:00,
2013-08-13 10:48:00,89.9,47.1,29.99,WSW,245,3.5,3.5,23,0.00,CLR,,0.00,WeatherDisplay:10.37,2013-08-13 17:48:00,
2013-08-13 10:53:00,89.9,46.0,29.99,North,5,0.0,0.0,22,0.00,CLR,,0.00,WeatherDisplay:10.37,2013-08-13 17:53:00,
2013-08-13 10:58:00,90.2,45.0,29.99,North,355,3.5,3.5,21,0.00,CLR,,0.00,WeatherDisplay:10.37,2013-08-13 17:58:00,
2013-08-13 11:03:00,90.8,45.5,29.99,ENE,63,4.6,4.6,21,0.00,CLR,,0.00,WeatherDisplay:10.37,2013-08-13 18:03:00,
2013-08-13 11:08:00,90.9,45.6,29.99,ESE,116,3.5,3.5,21,0.00,CLR,,0.00,WeatherDisplay:10.37,2013-08-13 18:08:00,
2013-08-13 11:13:00,91.2,45.8,29.99,East,86,4.6,4.6,21,0.00,CLR,,0.00,WeatherDisplay:10.37,2013-08-13 18:13:00,
2013-08-13 11:18:00,90.4,45.1,29.99,ENE,78,10.4,10.4,21,0.00,CLR,,0.00,WeatherDisplay:10.37,2013-08-13 18:18:00,
2013-08-13 11:23:00,90.7,45.4,29.99,ENE,67,4.6,4.6,21,0.00,CLR,,0.00,WeatherDisplay:10.37,2013-08-13 18:23:00,
2013-08-13 11:28:00,91.3,45.9,29.99,North,11,3.5,3.5,21,0.00,CLR,,0.00,WeatherDisplay:10.37,2013-08-13 18:28:00,
2013-08-13 11:33:00,91.8,45.0,29.99,SSE,150,3.5,3.5,20,0.00,CLR,,0.00,WeatherDisplay:10.37,2013-08-13 18:33:00,
2013-08-13 11:38:00,92.2,45.3,29.99,NNE,22,3.5,3.5,20,0.00,CLR,,0.00,WeatherDisplay:10.37,2013-08-13 18:38:00,
2013-08-13 11:43:00,92.0,46.5,29.98,WNW,297,3.5,3.5,21,0.00,CLR,,0.00,WeatherDisplay:10.37,2013-08-13 18:43:00,
2013-08-13 11:48:00,92.3,45.4,29.98,ENE,69,5.8,5.8,20,0.00,CLR,,0.00,WeatherDisplay:10.37,2013-08-13 18:48:00,
2013-08-13 11:53:00,92.9,45.9,29.98,NNE,30,6.9,6.9,20,0.00,CLR,,0.00,WeatherDisplay:10.37,2013-08-13 18:53:00,
2013-08-13 11:58:00,92.3,45.4,29.98,NNW,330,4.6,4.6,20,0.00,CLR,,0.00,WeatherDisplay:10.37,2013-08-13 18:58:00,
2013-08-13 12:03:00,92.4,45.5,29.98,NNE,19,1.2,1.2,20,0.00,CLR,,0.00,WeatherDisplay:10.37,2013-08-13 19:03:00,
2013-08-13 12:08:00,93.3,44.9,29.98,East,88,4.6,4.6,19,0.00,CLR,,0.00,WeatherDisplay:10.37,2013-08-13 19:08:00,
2013-08-13 12:13:00,94.0,45.5,29.97,ENE,71,9.2,9.2,19,0.00,CLR,,0.00,WeatherDisplay:10.37,2013-08-13 19:13:00,
2013-08-13 12:18:00,93.5,43.6,29.97,ESE,111,11.5,11.5,18,0.00,CLR,,0.00,WeatherDisplay:10.37,2013-08-13 19:18:00,
2013-08-13 12:23:00,92.9,44.6,29.97,NNE,13,3.5,3.5,19,0.00,CLR,,0.00,WeatherDisplay:10.37,2013-08-13 19:23:00,
2013-08-13 12:28:00,93.2,43.4,29.97,NE,49,3.5,3.5,18,0.00,CLR,,0.00,WeatherDisplay:10.37,2013-08-13 19:28:00,
2013-08-13 12:33:00,93.5,43.6,29.97,ESE,111,4.6,4.6,18,0.00,CLR,,0.00,WeatherDisplay:10.37,2013-08-13 19:33:00,
2013-08-13 12:38:00,93.5,43.6,29.97,ESE,103,5.8,5.8,18,0.00,CLR,,0.00,WeatherDisplay:10.37,2013-08-13 19:38:00,
2013-08-13 12:43:00,93.6,43.7,29.97,ESE,119,3.5,3.5,18,0.00,CLR,,0.00,WeatherDisplay:10.37,2013-08-13 19:43:00,
2013-08-13 12:48:00,94.4,44.4,29.97,NNW,327,4.0,4.0,18,0.00,CLR,,0.00,WeatherDisplay:10.37,2013-08-13 19:48:00,
2013-08-13 12:53:00,94.8,43.2,29.97,NNE,21,3.5,3.5,17,0.00,CLR,,0.00,WeatherDisplay:10.37,2013-08-13 19:53:00,
2013-08-13 12:58:00,95.1,43.4,29.97,NNE,21,5.8,5.8,17,0.00,CLR,,0.00,WeatherDisplay:10.37,2013-08-13 19:58:00,
2013-08-13 13:03:00,94.5,42.9,29.96,NNE,14,5.8,5.8,17,0.00,CLR,,0.00,WeatherDisplay:10.37,2013-08-13 20:03:00,
2013-08-13 13:08:00,93.7,42.3,29.96,NNE,32,3.5,3.5,17,0.00,CLR,,0.00,WeatherDisplay:10.37,2013-08-13 20:08:00,
2013-08-13 13:13:00,94.2,42.7,29.96,North,360,2.3,2.3,17,0.00,CLR,,0.00,WeatherDisplay:10.37,2013-08-13 20:13:00,
2013-08-13 13:18:00,95.0,41.8,29.96,NE,45,4.6,4.6,16,0.00,CLR,,0.00,WeatherDisplay:10.37,2013-08-13 20:18:00,
2013-08-13 13:23:00,94.9,41.7,29.96,North,355,5.8,5.8,16,0.00,CLR,,0.00,WeatherDisplay:10.37,2013-08-13 20:23:00,
2013-08-13 13:28:00,95.1,41.9,29.96,SW,230,4.0,4.0,16,0.00,CLR,,0.00,WeatherDisplay:10.37,2013-08-13 20:28:00,
2013-08-13 13:33:00,95.4,40.4,29.95,NNW,329,5.0,5.0,15,0.00,CLR,,0.00,WeatherDisplay:10.37,2013-08-13 20:33:00,
2013-08-13 13:38:00,96.0,40.9,29.95,NW,309,4.6,4.6,15,0.00,CLR,,0.00,WeatherDisplay:10.37,2013-08-13 20:38:00,
2013-08-13 13:43:00,95.4,40.4,29.95,WNW,300,10.4,10.4,15,0.00,CLR,,0.00,WeatherDisplay:10.37,2013-08-13 20:43:00,
2013-08-13 13:48:00,95.5,40.5,29.95,SW,219,0.0,0.0,15,0.00,CLR,,0.00,WeatherDisplay:10.37,2013-08-13 20:48:00,
2013-08-13 13:53:00,96.4,41.2,29.95,West,275,4.6,4.6,15,0.00,CLR,,0.00,WeatherDisplay:10.37,2013-08-13 20:53:00,
2013-08-13 13:58:00,96.8,41.5,29.95,NW,322,0.0,0.0,15,0.00,CLR,,0.00,WeatherDisplay:10.37,2013-08-13 20:58:00,
2013-08-13 14:03:00,97.2,40.1,29.94,NW,312,5.8,5.8,14,0.00,CLR,,0.00,WeatherDisplay:10.37,2013-08-13 21:03:00,
2013-08-13 14:08:00,96.8,39.7,29.94,WNW,303,5.8,5.8,14,0.00,CLR,,0.00,WeatherDisplay:10.37,2013-08-13 21:08:00,
2013-08-13 14:13:00,97.1,40.0,29.94,West,266,1.2,1.2,14,0.00,CLR,,0.00,WeatherDisplay:10.37,2013-08-13 21:13:00,
2013-08-13 14:18:00,97.7,40.5,29.94,NW,307,4.6,4.6,14,0.00,CLR,,0.00,WeatherDisplay:10.37,2013-08-13 21:18:00,
2013-08-13 14:23:00,97.8,38.6,29.94,ENE,74,0.0,0.0,13,0.00,CLR,,0.00,WeatherDisplay:10.37,2013-08-13 21:23:00,
2013-08-13 14:28:00,98.4,39.1,29.93,ENE,73,1.2,1.2,13,0.00,CLR,,0.00,WeatherDisplay:10.37,2013-08-13 21:28:00,
2013-08-13 14:33:00,99.0,39.6,29.93,South,184,3.5,3.5,13,0.00,CLR,,0.00,WeatherDisplay:10.37,2013-08-13 21:33:00,
2013-08-13 14:38:00,99.4,39.9,29.93,SW,225,9.2,9.2,13,0.00,CLR,,0.00,WeatherDisplay:10.37,2013-08-13 21:38:00,
2013-08-13 14:43:00,99.2,39.7,29.93,SW,219,5.8,5.8,13,0.00,CLR,,0.00,WeatherDisplay:10.37,2013-08-13 21:43:00,
2013-08-13 14:48:00,99.0,39.6,29.93,WSW,257,3.5,3.5,13,0.00,CLR,,0.00,WeatherDisplay:10.37,2013-08-13 21:48:00,
2013-08-13 14:53:00,99.6,38.0,29.93,SSE,165,6.0,6.0,12,0.00,CLR,,0.00,WeatherDisplay:10.37,2013-08-13 21:53:00,
2013-08-13 14:58:00,99.0,37.5,29.92,SE,130,5.8,5.8,12,0.00,CLR,,0.00,WeatherDisplay:10.37,2013-08-13 21:58:00,
2013-08-13 15:03:00,98.5,37.1,29.92,ESE,117,4.6,4.6,12,0.00,CLR,,0.00,WeatherDisplay:10.37,2013-08-13 22:03:00,
2013-08-13 15:08:00,99.0,37.5,29.92,East,86,2.3,2.3,12,0.00,CLR,,0.00,WeatherDisplay:10.37,2013-08-13 22:08:00,
2013-08-13 15:13:00,99.8,38.1,29.92,WSW,238,5.8,5.8,12,0.00,CLR,,0.00,WeatherDisplay:10.37,2013-08-13 22:13:00,
2013-08-13 15:18:00,99.7,38.1,29.92,ESE,118,6.9,6.9,12,0.00,CLR,,0.00,WeatherDisplay:10.37,2013-08-13 22:18:00,
2013-08-13 15:23:00,99.5,37.9,29.92,South,174,2.3,2.3,12,0.00,CLR,,0.00,WeatherDisplay:10.37,2013-08-13 22:23:00,
2013-08-13 15:28:00,100.2,38.4,29.91,SW,224,4.0,4.0,12,0.00,CLR,,0.00,WeatherDisplay:10.37,2013-08-13 22:28:00,
2013-08-13 15:33:00,100.4,38.6,29.91,SE,128,1.2,1.2,12,0.00,CLR,,0.00,WeatherDisplay:10.37,2013-08-13 22:33:00,
2013-08-13 15:38:00,100.4,38.6,29.91,NNW,334,3.5,3.5,12,0.00,CLR,,0.00,WeatherDisplay:10.37,2013-08-13 22:38:00,
2013-08-13 15:43:00,99.8,38.1,29.91,NNE,28,6.9,6.9,12,0.00,CLR,,0.00,WeatherDisplay:10.37,2013-08-13 22:43:00,
2013-08-13 15:48:00,99.8,38.1,29.91,NW,304,4.0,4.0,12,0.00,CLR,,0.00,WeatherDisplay:10.37,2013-08-13 22:48:00,
2013-08-13 15:53:00,99.4,37.8,29.91,WNW,296,8.1,8.1,12,0.00,CLR,,0.00,WeatherDisplay:10.37,2013-08-13 22:53:00,
2013-08-13 15:58:00,99.3,39.8,29.90,WNW,284,10.4,10.4,13,0.00,CLR,,0.00,WeatherDisplay:10.37,2013-08-13 22:58:00,
2013-08-13 16:03:00,99.6,38.0,29.90,NNW,329,4.6,4.6,12,0.00,CLR,,0.00,WeatherDisplay:10.37,2013-08-13 23:03:00,
2013-08-13 16:08:00,100.0,38.3,29.90,ENE,59,6.9,6.9,12,0.00,CLR,,0.00,WeatherDisplay:10.37,2013-08-13 23:08:00,
2013-08-13 16:13:00,100.2,38.4,29.90,SSE,149,5.8,5.8,12,0.00,CLR,,0.00,WeatherDisplay:10.37,2013-08-13 23:13:00,
2013-08-13 16:18:00,100.2,38.4,29.90,SSW,203,6.9,6.9,12,0.00,CLR,,0.00,WeatherDisplay:10.37,2013-08-13 23:18:00,
2013-08-13 16:23:00,100.4,38.6,29.90,SW,232,5.8,5.8,12,0.00,CLR,,0.00,WeatherDisplay:10.37,2013-08-13 23:23:00,
2013-08-13 16:28:00,101.1,39.1,29.90,WSW,246,5.8,5.8,12,0.00,CLR,,0.00,WeatherDisplay:10.37,2013-08-13 23:28:00,
2013-08-13 16:33:00,100.6,40.8,29.90,SW,232,6.9,6.9,13,0.00,CLR,,0.00,WeatherDisplay:10.37,2013-08-13 23:33:00,
2013-08-13 16:38:00,100.1,40.4,29.90,West,263,5.8,5.8,13,0.00,CLR,,0.00,WeatherDisplay:10.37,2013-08-13 23:38:00,
2013-08-13 16:43:00,100.1,44.1,29.90,South,188,15.0,15.0,15,0.00,CLR,,0.00,WeatherDisplay:10.37,2013-08-13 23:43:00,
2013-08-13 16:48:00,99.2,43.4,29.89,WSW,240,19.6,19.6,15,0.00,CLR,,0.00,WeatherDisplay:10.37,2013-08-13 23:48:00,
2013-08-13 16:53:00,98.7,44.7,29.90,SW,214,21.9,21.9,16,0.00,CLR,,0.00,WeatherDisplay:10.37,2013-08-13 23:53:00,
2013-08-13 16:58:00,98.7,44.7,29.90,SW,218,24.0,24.0,16,0.00,CLR,,0.00,WeatherDisplay:10.37,2013-08-13 23:58:00,
2013-08-13 17:03:00,98.1,44.2,29.90,SSW,196,19.0,19.0,16,0.00,CLR,,0.00,WeatherDisplay:10.37,2013-08-14 00:03:00,
2013-08-13 17:08:00,98.0,45.8,29.90,SW,233,23.0,23.0,17,0.00,CLR,,0.00,WeatherDisplay:10.37,2013-08-14 00:08:00,
2013-08-13 17:13:00,97.7,45.5,29.90,SW,219,19.0,19.0,17,0.00,CLR,,0.00,WeatherDisplay:10.37,2013-08-14 00:13:00,
2013-08-13 17:18:00,97.3,45.2,29.90,SSW,209,20.7,20.7,17,0.00,CLR,,0.00,WeatherDisplay:10.37,2013-08-14 00:18:00,
2013-08-13 17:23:00,97.1,43.4,29.90,SW,227,19.0,19.0,16,0.00,CLR,,0.00,WeatherDisplay:10.37,2013-08-14 00:23:00,
2013-08-13 17:28:00,96.8,44.8,29.90,SSW,210,19.6,19.6,17,0.00,CLR,,0.00,WeatherDisplay:10.37,2013-08-14 00:28:00,
2013-08-13 17:33:00,96.8,44.8,29.90,SW,217,20.7,20.7,17,0.00,CLR,,0.00,WeatherDisplay:10.37,2013-08-14 00:33:00,
2013-08-13 17:38:00,96.3,44.4,29.90,SSW,201,19.6,19.6,17,0.00,CLR,,0.00,WeatherDisplay:10.37,2013-08-14 00:38:00,
2013-08-13 17:43:00,96.2,44.3,29.90,SW,234,19.6,19.6,17,0.00,CLR,,0.00,WeatherDisplay:10.37,2013-08-14 00:43:00,
2013-08-13 17:48:00,96.1,44.2,29.91,WSW,237,20.0,20.0,17,0.00,CLR,,0.00,WeatherDisplay:10.37,2013-08-14 00:48:00,
2013-08-13 17:53:00,96.0,42.6,29.91,SSW,210,19.6,19.6,16,0.00,CLR,,0.00,WeatherDisplay:10.37,2013-08-14 00:53:00,
2013-08-13 17:58:00,96.0,42.6,29.91,SW,233,19.6,19.6,16,0.00,CLR,,0.00,WeatherDisplay:10.37,2013-08-14 00:58:00,
2013-08-13 18:03:00,95.7,43.9,29.91,SW,226,23.0,23.0,17,0.00,CLR,,0.00,WeatherDisplay:10.37,2013-08-14 01:03:00,
2013-08-13 18:08:00,95.5,42.2,29.91,SSW,208,19.6,19.6,16,0.00,CLR,,0.00,WeatherDisplay:10.37,2013-08-14 01:08:00,
2013-08-13 18:13:00,95.2,41.9,29.91,WSW,251,20.7,20.7,16,0.00,CLR,,0.00,WeatherDisplay:10.37,2013-08-14 01:13:00,
2013-08-13 18:18:00,95.2,43.5,29.91,SW,236,23.0,23.0,17,0.00,CLR,,0.00,WeatherDisplay:10.37,2013-08-14 01:18:00,
2013-08-13 18:23:00,94.9,43.3,29.91,SW,221,19.6,19.6,17,0.00,CLR,,0.00,WeatherDisplay:10.37,2013-08-14 01:23:00,
2013-08-13 18:28:00,94.6,43.0,29.91,SW,227,20.7,20.7,17,0.00,CLR,,0.00,WeatherDisplay:10.37,2013-08-14 01:28:00,
2013-08-13 18:33:00,94.4,44.4,29.91,SW,216,21.9,21.9,18,0.00,CLR,,0.00,WeatherDisplay:10.37,2013-08-14 01:33:00,
2013-08-13 18:38:00,94.0,44.0,29.91,SW,223,21.9,21.9,18,0.00,CLR,,0.00,WeatherDisplay:10.37,2013-08-14 01:38:00,
2013-08-13 18:43:00,93.7,43.8,29.91,WSW,251,16.1,16.1,18,0.00,CLR,,0.00,WeatherDisplay:10.37,2013-08-14 01:43:00,
2013-08-13 18:48:00,94.0,42.5,29.91,WSW,248,19.6,19.6,17,0.00,CLR,,0.00,WeatherDisplay:10.37,2013-08-14 01:48:00,
2013-08-13 18:53:00,94.0,42.5,29.91,SW,236,18.4,18.4,17,0.00,CLR,,0.00,WeatherDisplay:10.37,2013-08-14 01:53:00,
2013-08-13 18:58:00,93.9,40.9,29.91,WSW,256,16.1,16.1,16,0.00,CLR,,0.00,WeatherDisplay:10.37,2013-08-14 01:58:00,
2013-08-13 19:03:00,93.5,42.1,29.92,WSW,244,18.4,18.4,17,0.00,CLR,,0.00,WeatherDisplay:10.37,2013-08-14 02:03:00,
2013-08-13 19:08:00,93.2,41.9,29.92,WSW,242,19.6,19.6,17,0.00,CLR,,0.00,WeatherDisplay:10.37,2013-08-14 02:08:00,
2013-08-13 19:13:00,92.9,41.7,29.92,West,261,17.3,17.3,17,0.00,CLR,,0.00,WeatherDisplay:10.37,2013-08-14 02:13:00,
2013-08-13 19:18:00,92.4,42.7,29.92,West,263,17.3,17.3,18,0.00,CLR,,0.00,WeatherDisplay:10.37,2013-08-14 02:18:00,
2013-08-13 19:23:00,91.8,43.7,29.92,WSW,258,12.7,12.7,19,0.00,CLR,,0.00,WeatherDisplay:10.37,2013-08-14 02:23:00,
2013-08-13 19:28:00,91.3,43.3,29.92,WSW,238,11.5,11.5,19,0.00,CLR,,0.00,WeatherDisplay:10.37,2013-08-14 02:28:00,
2013-08-13 19:33:00,90.7,44.1,29.92,WSW,253,11.5,11.5,20,0.00,CLR,,0.00,WeatherDisplay:10.37,2013-08-14 02:33:00,
2013-08-13 19:38:00,90.0,43.5,29.92,WSW,256,11.5,11.5,20,0.00,CLR,,0.00,WeatherDisplay:10.37,2013-08-14 02:38:00,
2013-08-13 19:43:00,89.2,42.9,29.92,WSW,253,11.5,11.5,20,0.00,CLR,,0.00,WeatherDisplay:10.37,2013-08-14 02:43:00,
2013-08-13 19:48:00,88.6,43.7,29.93,West,261,11.5,11.5,21,0.00,CLR,,0.00,WeatherDisplay:10.37,2013-08-14 02:48:00,
2013-08-13 19:53:00,87.8,43.0,29.93,WSW,257,10.4,10.4,21,0.00,CLR,,0.00,WeatherDisplay:10.37,2013-08-14 02:53:00,
2013-08-13 19:58:00,87.1,43.6,29.93,West,276,10.4,10.4,22,0.00,CLR,,0.00,WeatherDisplay:10.37,2013-08-14 02:58:00,
2013-08-13 20:03:00,86.8,43.4,29.93,West,272,12.0,12.0,22,0.00,CLR,,0.00,WeatherDisplay:10.37,2013-08-14 03:03:00,
2013-08-13 20:08:00,86.8,43.4,29.93,West,260,11.5,11.5,22,0.00,CLR,,0.00,WeatherDisplay:10.37,2013-08-14 03:08:00,
2013-08-13 20:13:00,86.5,43.1,29.93,WSW,257,11.5,11.5,22,0.00,CLR,,0.00,WeatherDisplay:10.37,2013-08-14 03:13:00,
2013-08-13 20:19:00,86.1,44.0,29.94,WSW,257,10.4,10.4,23,0.00,CLR,,0.00,WeatherDisplay:10.37,2013-08-14 03:19:00,
2013-08-13 20:24:00,85.7,44.7,29.93,West,261,13.8,13.8,24,0.00,CLR,,0.00,WeatherDisplay:10.37,2013-08-14 03:24:00,
2013-08-13 20:29:00,85.0,44.2,29.94,WSW,252,10.4,10.4,24,0.00,CLR,,0.00,WeatherDisplay:10.37,2013-08-14 03:29:00,
2013-08-13 20:34:00,84.4,44.7,29.94,West,277,11.5,11.5,25,0.00,CLR,,0.00,WeatherDisplay:10.37,2013-08-14 03:34:00,
2013-08-13 20:39:00,83.8,45.3,29.94,West,279,9.2,9.2,26,0.00,CLR,,0.00,WeatherDisplay:10.37,2013-08-14 03:39:00,
2013-08-13 20:44:00,83.6,45.1,29.94,WNW,283,6.9,6.9,26,0.00,CLR,,0.00,WeatherDisplay:10.37,2013-08-14 03:44:00,
2013-08-13 20:49:00,83.3,44.8,29.95,West,261,5.0,5.0,26,0.00,CLR,,0.00,WeatherDisplay:10.37,2013-08-14 03:49:00,
2013-08-13 20:54:00,83.2,43.7,29.95,West,272,11.5,11.5,25,0.00,CLR,,0.00,WeatherDisplay:10.37,2013-08-14 03:54:00,
2013-08-13 20:59:00,83.3,43.8,29.95,West,276,13.8,13.8,25,0.00,CLR,,0.00,WeatherDisplay:10.37,2013-08-14 03:59:00,
2013-08-13 21:01:00,83.4,43.9,29.95,WNW,293,11.5,11.5,25,0.00,CLR,,0.00,WeatherDisplay:10.37,2013-08-14 04:01:00,
2013-08-13 21:02:00,83.4,43.9,29.95,West,261,13.8,13.8,25,0.00,CLR,,0.00,WeatherDisplay:10.37,2013-08-14 04:02:00,
2013-08-13 21:03:00,83.4,43.9,29.95,West,265,11.5,11.5,25,0.00,CLR,,0.00,WeatherDisplay:10.37,2013-08-14 04:03:00,
2013-08-13 21:15:00,82.5,44.1,29.95,West,278,10.0,10.0,26,0.00,CLR,,0.00,WeatherDisplay:10.37,2013-08-14 04:15:00,
2013-08-13 21:20:00,82.2,44.9,29.95,West,275,11.0,11.0,27,0.00,CLR,,0.00,WeatherDisplay:10.37,2013-08-14 04:20:00,
2013-08-13 21:26:00,81.9,44.6,29.95,WSW,254,10.4,10.4,27,0.00,CLR,,0.00,WeatherDisplay:10.37,2013-08-14 04:26:00,
2013-08-13 21:31:00,81.5,45.2,29.95,West,261,12.0,12.0,28,0.00,CLR,,0.00,WeatherDisplay:10.37,2013-08-14 04:31:00,
2013-08-13 21:36:00,81.1,44.9,29.95,WSW,255,11.5,11.5,28,0.00,CLR,,0.00,WeatherDisplay:10.37,2013-08-14 04:36:00,
2013-08-13 21:41:00,80.6,45.4,29.95,West,262,6.9,6.9,29,0.00,CLR,,0.00,WeatherDisplay:10.37,2013-08-14 04:41:00,
2013-08-13 21:46:00,80.2,45.1,29.95,West,259,9.2,9.2,29,0.00,CLR,,0.00,WeatherDisplay:10.37,2013-08-14 04:46:00,
2013-08-13 21:51:00,80.3,45.1,29.95,WNW,286,5.8,5.8,29,0.00,CLR,,0.00,WeatherDisplay:10.37,2013-08-14 04:51:00,
2013-08-13 21:56:00,80.3,45.1,29.96,West,265,6.9,6.9,29,0.00,CLR,,0.00,WeatherDisplay:10.37,2013-08-14 04:56:00,
2013-08-13 22:01:00,80.2,45.1,29.96,WNW,298,3.5,3.5,29,0.00,CLR,,0.00,WeatherDisplay:10.37,2013-08-14 05:01:00,
2013-08-13 22:06:00,80.1,45.0,29.96,West,269,3.5,3.5,29,0.00,CLR,,0.00,WeatherDisplay:10.37,2013-08-14 05:06:00,
2013-08-13 22:11:00,79.8,44.7,29.96,West,276,4.0,4.0,29,0.00,CLR,,0.00,WeatherDisplay:10.37,2013-08-14 05:11:00,
2013-08-13 22:16:00,79.6,44.5,29.95,WNW,287,4.0,4.0,29,0.00,CLR,,0.00,WeatherDisplay:10.37,2013-08-14 05:16:00,
2013-08-13 22:21:00,79.5,44.5,29.95,West,273,5.8,5.8,29,0.00,CLR,,0.00,WeatherDisplay:10.37,2013-08-14 05:21:00,
2013-08-13 22:26:00,79.4,44.4,29.95,WNW,288,5.8,5.8,29,0.00,CLR,,0.00,WeatherDisplay:10.37,2013-08-14 05:26:00,
2013-08-13 22:31:00,79.2,44.2,29.95,West,265,3.5,3.5,29,0.00,CLR,,0.00,WeatherDisplay:10.37,2013-08-14 05:31:00,
2013-08-13 22:36:00,78.7,43.8,29.95,West,265,3.5,3.5,29,0.00,CLR,,0.00,WeatherDisplay:10.37,2013-08-14 05:36:00,
2013-08-13 22:41:00,78.2,44.2,29.95,West,264,2.3,2.3,30,0.00,CLR,,0.00,WeatherDisplay:10.37,2013-08-14 05:41:00,
2013-08-13 22:46:00,77.7,43.8,29.96,West,265,2.3,2.3,30,0.00,CLR,,0.00,WeatherDisplay:10.37,2013-08-14 05:46:00,
2013-08-13 22:51:00,77.6,43.7,29.96,West,265,2.3,2.3,30,0.00,CLR,,0.00,WeatherDisplay:10.37,2013-08-14 05:51:00,
2013-08-13 22:56:00,77.5,42.7,29.96,NW,310,3.5,3.5,29,0.00,CLR,,0.00,WeatherDisplay:10.37,2013-08-14 05:56:00,
2013-08-13 23:01:00,77.7,43.8,29.96,WNW,296,4.0,4.0,30,0.00,CLR,,0.00,WeatherDisplay:10.37,2013-08-14 06:01:00,
2013-08-13 23:06:00,77.9,44.0,29.96,WSW,250,4.0,4.0,30,0.00,CLR,,0.00,WeatherDisplay:10.37,2013-08-14 06:06:00,
2013-08-13 23:11:00,77.6,43.7,29.96,SW,226,5.8,5.8,30,0.00,CLR,,0.00,WeatherDisplay:10.37,2013-08-14 06:11:00,
2013-08-13 23:16:00,77.3,43.4,29.96,WNW,290,3.5,3.5,30,0.00,CLR,,0.00,WeatherDisplay:10.37,2013-08-14 06:16:00,
2013-08-13 23:21:00,77.1,43.3,29.96,WNW,290,0.0,0.0,30,0.00,CLR,,0.00,WeatherDisplay:10.37,2013-08-14 06:21:00,
2013-08-13 23:26:00,77.1,43.3,29.96,WSW,254,2.3,2.3,30,0.00,CLR,,0.00,WeatherDisplay:10.37,2013-08-14 06:26:00,
2013-08-13 23:31:00,77.1,43.3,29.96,WSW,242,2.0,2.0,30,0.00,CLR,,0.00,WeatherDisplay:10.37,2013-08-14 06:31:00,
2013-08-13 23:36:00,77.0,43.2,29.96,WSW,243,0.0,0.0,30,0.00,CLR,,0.00,WeatherDisplay:10.37,2013-08-14 06:36:00,
2013-08-13 23:41:00,76.9,43.1,29.96,WSW,249,3.5,3.5,30,0.00,CLR,,0.00,WeatherDisplay:10.37,2013-08-14 06:41:00,
2013-08-13 23:47:00,76.5,43.6,29.96,WSW,249,0.0,0.0,31,0.00,CLR,,0.00,WeatherDisplay:10.37,2013-08-14 06:47:00,
2013-08-13 23:52:00,76.2,43.3,29.96,WSW,249,0.0,0.0,31,0.00,CLR,,0.00,WeatherDisplay:10.37,2013-08-14 06:52:00,
2013-08-13 23:57:00,76.0,43.2,29.96,WSW,249,0.0,0.0,31,0.00,CLR,,0.00,WeatherDisplay:10.37,2013-08-14 06:57:00,